sensor_id;sensor_type;location;lat;lon;timestamp;P1;durP1;ratioP1;P2;durP2;ratioP2
76540;SDS011;65385;55.772;37.658;2023-09-19T00:00:21;18.55;;;10.77;;
76540;SDS011;65385;55.772;37.658;2023-09-19T00:01:25;21.25;;;10.77;;
76540;SDS011;65385;55.772;37.658;2023-09-19T00:02:25;17.38;;;9.65;;
76540;SDS011;65385;55.772;37.658;2023-09-19T00:03:26;20.42;;;11.10;;
76540;SDS011;65385;55.772;37.658;2023-09-19T00:04:30;18.10;;;10.32;;
76540;SDS011;65385;55.772;37.658;2023-09-19T00:05:36;20.45;;;11.68;;
76540;SDS011;65385;55.772;37.658;2023-09-19T00:06:38;21.13;;;11.70;;
76540;SDS011;65385;55.772;37.658;2023-09-19T00:07:39;21.63;;;12.70;;
76540;SDS011;65385;55.772;37.658;2023-09-19T00:08:40;21.38;;;11.88;;
76540;SDS011;65385;55.772;37.658;2023-09-19T00:09:44;21.98;;;11.27;;
76540;SDS011;65385;55.772;37.658;2023-09-19T00:10:44;21.38;;;11.65;;
76540;SDS011;65385;55.772;37.658;2023-09-19T00:11:45;21.25;;;11.73;;
76540;SDS011;65385;55.772;37.658;2023-09-19T00:12:47;22.60;;;12.60;;
76540;SDS011;65385;55.772;37.658;2023-09-19T00:13:48;26.33;;;13.85;;
76540;SDS011;65385;55.772;37.658;2023-09-19T00:14:50;22.25;;;12.70;;
76540;SDS011;65385;55.772;37.658;2023-09-19T00:15:51;26.30;;;13.20;;
76540;SDS011;65385;55.772;37.658;2023-09-19T00:16:52;21.67;;;12.60;;
76540;SDS011;65385;55.772;37.658;2023-09-19T00:17:55;21.75;;;12.55;;
76540;SDS011;65385;55.772;37.658;2023-09-19T00:18:56;22.60;;;12.70;;
76540;SDS011;65385;55.772;37.658;2023-09-19T00:19:57;22.45;;;12.70;;
76540;SDS011;65385;55.772;37.658;2023-09-19T00:20:58;24.45;;;12.85;;
76540;SDS011;65385;55.772;37.658;2023-09-19T00:21:59;22.08;;;12.48;;
76540;SDS011;65385;55.772;37.658;2023-09-19T00:22:59;21.48;;;11.75;;
76540;SDS011;65385;55.772;37.658;2023-09-19T00:24:06;22.33;;;12.88;;
76540;SDS011;65385;55.772;37.658;2023-09-19T00:25:06;21.00;;;12.13;;
76540;SDS011;65385;55.772;37.658;2023-09-19T00:26:07;22.77;;;12.63;;
76540;SDS011;65385;55.772;37.658;2023-09-19T00:27:08;24.52;;;13.02;;
76540;SDS011;65385;55.772;37.658;2023-09-19T00:28:08;24.45;;;13.52;;
76540;SDS011;65385;55.772;37.658;2023-09-19T00:29:09;20.23;;;11.93;;
76540;SDS011;65385;55.772;37.658;2023-09-19T00:30:11;21.70;;;13.32;;
76540;SDS011;65385;55.772;37.658;2023-09-19T00:31:21;25.20;;;11.88;;
76540;SDS011;65385;55.772;37.658;2023-09-19T00:32:25;20.45;;;12.43;;
76540;SDS011;65385;55.772;37.658;2023-09-19T00:33:32;20.98;;;12.73;;
76540;SDS011;65385;55.772;37.658;2023-09-19T00:34:32;20.70;;;12.88;;
76540;SDS011;65385;55.772;37.658;2023-09-19T00:35:34;20.88;;;12.05;;
76540;SDS011;65385;55.772;37.658;2023-09-19T00:36:35;22.05;;;12.23;;
76540;SDS011;65385;55.772;37.658;2023-09-19T00:37:36;22.20;;;13.40;;
76540;SDS011;65385;55.772;37.658;2023-09-19T00:38:37;21.98;;;12.88;;
76540;SDS011;65385;55.772;37.658;2023-09-19T00:39:38;19.40;;;12.13;;
76540;SDS011;65385;55.772;37.658;2023-09-19T00:40:39;20.98;;;12.35;;
76540;SDS011;65385;55.772;37.658;2023-09-19T00:41:44;20.70;;;12.18;;
76540;SDS011;65385;55.772;37.658;2023-09-19T00:42:45;20.35;;;11.85;;
76540;SDS011;65385;55.772;37.658;2023-09-19T00:43:46;20.80;;;11.57;;
76540;SDS011;65385;55.772;37.658;2023-09-19T00:44:48;22.65;;;12.57;;
76540;SDS011;65385;55.772;37.658;2023-09-19T00:45:51;20.48;;;11.27;;
76540;SDS011;65385;55.772;37.658;2023-09-19T00:46:54;22.23;;;12.75;;
76540;SDS011;65385;55.772;37.658;2023-09-19T00:47:55;21.98;;;11.77;;
76540;SDS011;65385;55.772;37.658;2023-09-19T00:48:56;21.60;;;12.70;;
76540;SDS011;65385;55.772;37.658;2023-09-19T00:49:57;22.50;;;12.00;;
76540;SDS011;65385;55.772;37.658;2023-09-19T00:50:59;23.20;;;11.63;;
76540;SDS011;65385;55.772;37.658;2023-09-19T00:52:05;21.25;;;11.13;;
76540;SDS011;65385;55.772;37.658;2023-09-19T00:53:06;19.40;;;11.18;;
76540;SDS011;65385;55.772;37.658;2023-09-19T00:54:08;22.95;;;11.75;;
76540;SDS011;65385;55.772;37.658;2023-09-19T00:55:09;20.15;;;10.88;;
76540;SDS011;65385;55.772;37.658;2023-09-19T00:56:10;18.88;;;11.52;;
76540;SDS011;65385;55.772;37.658;2023-09-19T00:57:11;20.00;;;11.55;;
76540;SDS011;65385;55.772;37.658;2023-09-19T00:58:12;20.67;;;11.43;;
76540;SDS011;65385;55.772;37.658;2023-09-19T00:59:13;24.13;;;11.52;;
76540;SDS011;65385;55.772;37.658;2023-09-19T01:00:14;19.98;;;11.68;;
76540;SDS011;65385;55.772;37.658;2023-09-19T01:01:20;22.50;;;12.38;;
76540;SDS011;65385;55.772;37.658;2023-09-19T01:02:21;19.63;;;11.52;;
76540;SDS011;65385;55.772;37.658;2023-09-19T01:03:22;18.67;;;11.90;;
76540;SDS011;65385;55.772;37.658;2023-09-19T01:04:23;18.95;;;11.15;;
76540;SDS011;65385;55.772;37.658;2023-09-19T01:05:23;17.83;;;11.65;;
76540;SDS011;65385;55.772;37.658;2023-09-19T01:06:25;21.38;;;12.10;;
76540;SDS011;65385;55.772;37.658;2023-09-19T01:07:27;19.08;;;11.40;;
76540;SDS011;65385;55.772;37.658;2023-09-19T01:08:33;20.95;;;11.98;;
76540;SDS011;65385;55.772;37.658;2023-09-19T01:09:35;23.17;;;11.82;;
76540;SDS011;65385;55.772;37.658;2023-09-19T01:10:35;21.48;;;11.65;;
76540;SDS011;65385;55.772;37.658;2023-09-19T01:11:45;16.40;;;11.23;;
76540;SDS011;65385;55.772;37.658;2023-09-19T01:13:56;22.50;;;11.18;;
76540;SDS011;65385;55.772;37.658;2023-09-19T01:15:05;21.02;;;11.88;;
76540;SDS011;65385;55.772;37.658;2023-09-19T01:16:26;20.23;;;11.10;;
76540;SDS011;65385;55.772;37.658;2023-09-19T01:17:34;25.20;;;12.52;;
76540;SDS011;65385;55.772;37.658;2023-09-19T01:18:52;20.48;;;11.93;;
76540;SDS011;65385;55.772;37.658;2023-09-19T01:20:19;20.35;;;10.63;;
76540;SDS011;65385;55.772;37.658;2023-09-19T01:22:56;21.00;;;11.95;;
76540;SDS011;65385;55.772;37.658;2023-09-19T01:26:55;19.05;;;11.15;;
76540;SDS011;65385;55.772;37.658;2023-09-19T01:31:09;22.85;;;11.02;;
76540;SDS011;65385;55.772;37.658;2023-09-19T01:32:13;21.15;;;11.88;;
76540;SDS011;65385;55.772;37.658;2023-09-19T01:33:17;19.25;;;10.50;;
76540;SDS011;65385;55.772;37.658;2023-09-19T01:34:18;19.45;;;10.85;;
76540;SDS011;65385;55.772;37.658;2023-09-19T01:35:18;19.83;;;11.43;;
76540;SDS011;65385;55.772;37.658;2023-09-19T01:36:19;20.20;;;11.45;;
76540;SDS011;65385;55.772;37.658;2023-09-19T01:37:20;20.98;;;12.40;;
76540;SDS011;65385;55.772;37.658;2023-09-19T01:38:25;21.02;;;11.25;;
76540;SDS011;65385;55.772;37.658;2023-09-19T01:39:29;20.17;;;12.00;;
76540;SDS011;65385;55.772;37.658;2023-09-19T01:40:29;19.88;;;10.55;;
76540;SDS011;65385;55.772;37.658;2023-09-19T01:41:37;20.35;;;11.23;;
76540;SDS011;65385;55.772;37.658;2023-09-19T01:43:57;18.02;;;10.85;;
76540;SDS011;65385;55.772;37.658;2023-09-19T01:45:16;21.73;;;11.05;;
76540;SDS011;65385;55.772;37.658;2023-09-19T01:46:33;19.88;;;10.63;;
76540;SDS011;65385;55.772;37.658;2023-09-19T01:47:37;19.70;;;10.43;;
76540;SDS011;65385;55.772;37.658;2023-09-19T01:48:46;23.08;;;11.60;;
76540;SDS011;65385;55.772;37.658;2023-09-19T01:51:01;22.25;;;11.02;;
76540;SDS011;65385;55.772;37.658;2023-09-19T01:52:15;17.85;;;10.50;;
76540;SDS011;65385;55.772;37.658;2023-09-19T01:54:52;19.58;;;10.70;;
76540;SDS011;65385;55.772;37.658;2023-09-19T01:55:58;21.00;;;10.80;;
76540;SDS011;65385;55.772;37.658;2023-09-19T01:57:16;21.48;;;11.60;;
76540;SDS011;65385;55.772;37.658;2023-09-19T01:59:41;19.23;;;10.75;;
76540;SDS011;65385;55.772;37.658;2023-09-19T02:00:46;18.67;;;10.95;;
76540;SDS011;65385;55.772;37.658;2023-09-19T02:01:52;18.85;;;10.98;;
76540;SDS011;65385;55.772;37.658;2023-09-19T02:02:54;22.30;;;10.40;;
76540;SDS011;65385;55.772;37.658;2023-09-19T02:03:57;20.50;;;9.80;;
76540;SDS011;65385;55.772;37.658;2023-09-19T02:04:58;19.42;;;10.60;;
76540;SDS011;65385;55.772;37.658;2023-09-19T02:06:01;18.70;;;11.10;;
76540;SDS011;65385;55.772;37.658;2023-09-19T02:07:03;18.80;;;10.80;;
76540;SDS011;65385;55.772;37.658;2023-09-19T02:08:05;18.52;;;10.88;;
76540;SDS011;65385;55.772;37.658;2023-09-19T02:09:06;19.17;;;11.15;;
76540;SDS011;65385;55.772;37.658;2023-09-19T02:10:07;16.40;;;10.15;;
76540;SDS011;65385;55.772;37.658;2023-09-19T02:11:10;18.48;;;10.95;;
76540;SDS011;65385;55.772;37.658;2023-09-19T02:12:11;18.25;;;10.77;;
76540;SDS011;65385;55.772;37.658;2023-09-19T02:13:12;17.75;;;10.43;;
76540;SDS011;65385;55.772;37.658;2023-09-19T02:14:12;20.65;;;10.75;;
76540;SDS011;65385;55.772;37.658;2023-09-19T02:15:14;18.42;;;10.20;;
76540;SDS011;65385;55.772;37.658;2023-09-19T02:16:16;20.50;;;11.07;;
76540;SDS011;65385;55.772;37.658;2023-09-19T02:17:17;19.35;;;10.15;;
76540;SDS011;65385;55.772;37.658;2023-09-19T02:18:17;17.38;;;10.90;;
76540;SDS011;65385;55.772;37.658;2023-09-19T02:19:18;18.30;;;10.15;;
76540;SDS011;65385;55.772;37.658;2023-09-19T02:20:21;19.92;;;10.88;;
76540;SDS011;65385;55.772;37.658;2023-09-19T02:21:21;19.02;;;10.77;;
76540;SDS011;65385;55.772;37.658;2023-09-19T02:22:22;19.90;;;10.00;;
76540;SDS011;65385;55.772;37.658;2023-09-19T02:23:22;19.50;;;10.57;;
76540;SDS011;65385;55.772;37.658;2023-09-19T02:24:23;17.35;;;10.25;;
76540;SDS011;65385;55.772;37.658;2023-09-19T02:25:24;22.02;;;10.93;;
76540;SDS011;65385;55.772;37.658;2023-09-19T02:26:27;19.73;;;10.15;;
76540;SDS011;65385;55.772;37.658;2023-09-19T02:27:27;15.70;;;9.77;;
76540;SDS011;65385;55.772;37.658;2023-09-19T02:28:28;17.38;;;9.90;;
76540;SDS011;65385;55.772;37.658;2023-09-19T02:29:30;17.25;;;10.40;;
76540;SDS011;65385;55.772;37.658;2023-09-19T02:30:32;19.58;;;10.73;;
76540;SDS011;65385;55.772;37.658;2023-09-19T02:31:33;18.63;;;10.68;;
76540;SDS011;65385;55.772;37.658;2023-09-19T02:32:33;17.67;;;10.25;;
76540;SDS011;65385;55.772;37.658;2023-09-19T02:33:36;19.20;;;10.93;;
76540;SDS011;65385;55.772;37.658;2023-09-19T02:34:37;18.27;;;10.23;;
76540;SDS011;65385;55.772;37.658;2023-09-19T02:35:39;18.80;;;10.68;;
76540;SDS011;65385;55.772;37.658;2023-09-19T02:36:39;18.25;;;10.45;;
76540;SDS011;65385;55.772;37.658;2023-09-19T02:37:40;18.70;;;11.15;;
76540;SDS011;65385;55.772;37.658;2023-09-19T02:38:40;24.15;;;12.07;;
76540;SDS011;65385;55.772;37.658;2023-09-19T02:39:41;19.02;;;10.23;;
76540;SDS011;65385;55.772;37.658;2023-09-19T02:40:41;20.33;;;11.02;;
76540;SDS011;65385;55.772;37.658;2023-09-19T02:41:43;20.02;;;10.60;;
76540;SDS011;65385;55.772;37.658;2023-09-19T02:42:48;19.35;;;11.10;;
76540;SDS011;65385;55.772;37.658;2023-09-19T02:43:49;21.77;;;11.15;;
76540;SDS011;65385;55.772;37.658;2023-09-19T02:44:50;22.98;;;11.02;;
76540;SDS011;65385;55.772;37.658;2023-09-19T02:45:51;19.27;;;11.00;;
76540;SDS011;65385;55.772;37.658;2023-09-19T02:46:53;17.33;;;10.50;;
76540;SDS011;65385;55.772;37.658;2023-09-19T02:47:54;19.35;;;10.70;;
76540;SDS011;65385;55.772;37.658;2023-09-19T02:48:55;19.80;;;10.52;;
76540;SDS011;65385;55.772;37.658;2023-09-19T02:49:55;18.08;;;10.40;;
76540;SDS011;65385;55.772;37.658;2023-09-19T02:50:56;18.25;;;10.27;;
76540;SDS011;65385;55.772;37.658;2023-09-19T02:51:56;17.40;;;9.93;;
76540;SDS011;65385;55.772;37.658;2023-09-19T02:52:59;17.55;;;10.63;;
76540;SDS011;65385;55.772;37.658;2023-09-19T02:53:59;18.90;;;10.02;;
76540;SDS011;65385;55.772;37.658;2023-09-19T02:55:00;23.10;;;10.70;;
76540;SDS011;65385;55.772;37.658;2023-09-19T02:56:01;18.85;;;10.73;;
76540;SDS011;65385;55.772;37.658;2023-09-19T02:57:04;19.50;;;11.32;;
76540;SDS011;65385;55.772;37.658;2023-09-19T02:58:06;21.13;;;10.32;;
76540;SDS011;65385;55.772;37.658;2023-09-19T02:59:14;17.10;;;9.98;;
76540;SDS011;65385;55.772;37.658;2023-09-19T03:00:16;19.25;;;11.07;;
76540;SDS011;65385;55.772;37.658;2023-09-19T03:01:21;17.98;;;10.77;;
76540;SDS011;65385;55.772;37.658;2023-09-19T03:02:22;22.70;;;11.13;;
76540;SDS011;65385;55.772;37.658;2023-09-19T03:03:24;29.45;;;11.40;;
76540;SDS011;65385;55.772;37.658;2023-09-19T03:04:25;21.95;;;11.57;;
76540;SDS011;65385;55.772;37.658;2023-09-19T03:05:27;19.75;;;10.50;;
76540;SDS011;65385;55.772;37.658;2023-09-19T03:06:30;20.92;;;11.32;;
76540;SDS011;65385;55.772;37.658;2023-09-19T03:07:31;21.60;;;11.65;;
76540;SDS011;65385;55.772;37.658;2023-09-19T03:08:32;19.02;;;11.43;;
76540;SDS011;65385;55.772;37.658;2023-09-19T03:09:36;21.65;;;11.20;;
76540;SDS011;65385;55.772;37.658;2023-09-19T03:10:36;16.85;;;9.75;;
76540;SDS011;65385;55.772;37.658;2023-09-19T03:11:38;20.30;;;10.90;;
76540;SDS011;65385;55.772;37.658;2023-09-19T03:12:40;18.58;;;10.77;;
76540;SDS011;65385;55.772;37.658;2023-09-19T03:13:41;21.60;;;12.02;;
76540;SDS011;65385;55.772;37.658;2023-09-19T03:14:42;21.13;;;11.43;;
76540;SDS011;65385;55.772;37.658;2023-09-19T03:15:43;20.95;;;11.73;;
76540;SDS011;65385;55.772;37.658;2023-09-19T03:16:47;20.90;;;11.32;;
76540;SDS011;65385;55.772;37.658;2023-09-19T03:17:49;17.38;;;11.45;;
76540;SDS011;65385;55.772;37.658;2023-09-19T03:18:54;20.95;;;11.23;;
76540;SDS011;65385;55.772;37.658;2023-09-19T03:19:55;22.42;;;12.23;;
76540;SDS011;65385;55.772;37.658;2023-09-19T03:20:57;19.45;;;11.80;;
76540;SDS011;65385;55.772;37.658;2023-09-19T03:22:01;18.52;;;11.40;;
76540;SDS011;65385;55.772;37.658;2023-09-19T03:23:04;18.50;;;11.07;;
76540;SDS011;65385;55.772;37.658;2023-09-19T03:24:06;21.30;;;12.00;;
76540;SDS011;65385;55.772;37.658;2023-09-19T03:25:07;19.85;;;11.20;;
76540;SDS011;65385;55.772;37.658;2023-09-19T03:26:13;21.52;;;12.00;;
76540;SDS011;65385;55.772;37.658;2023-09-19T03:27:16;21.50;;;12.07;;
76540;SDS011;65385;55.772;37.658;2023-09-19T03:28:16;21.10;;;11.85;;
76540;SDS011;65385;55.772;37.658;2023-09-19T03:29:18;22.40;;;11.98;;
76540;SDS011;65385;55.772;37.658;2023-09-19T03:30:19;21.75;;;11.75;;
76540;SDS011;65385;55.772;37.658;2023-09-19T03:31:20;20.08;;;12.18;;
76540;SDS011;65385;55.772;37.658;2023-09-19T03:32:21;26.15;;;11.77;;
76540;SDS011;65385;55.772;37.658;2023-09-19T03:33:22;19.83;;;11.57;;
76540;SDS011;65385;55.772;37.658;2023-09-19T03:34:22;18.70;;;10.77;;
76540;SDS011;65385;55.772;37.658;2023-09-19T03:35:23;22.25;;;12.45;;
76540;SDS011;65385;55.772;37.658;2023-09-19T03:36:24;21.35;;;11.40;;
76540;SDS011;65385;55.772;37.658;2023-09-19T03:37:24;22.67;;;11.00;;
76540;SDS011;65385;55.772;37.658;2023-09-19T03:38:25;19.23;;;11.10;;
76540;SDS011;65385;55.772;37.658;2023-09-19T03:39:26;18.67;;;11.13;;
76540;SDS011;65385;55.772;37.658;2023-09-19T03:40:26;19.58;;;12.00;;
76540;SDS011;65385;55.772;37.658;2023-09-19T03:41:27;22.73;;;11.73;;
76540;SDS011;65385;55.772;37.658;2023-09-19T03:42:28;19.85;;;11.70;;
76540;SDS011;65385;55.772;37.658;2023-09-19T03:43:28;19.42;;;11.43;;
76540;SDS011;65385;55.772;37.658;2023-09-19T03:44:29;19.92;;;11.63;;
76540;SDS011;65385;55.772;37.658;2023-09-19T03:45:30;21.85;;;12.20;;
76540;SDS011;65385;55.772;37.658;2023-09-19T03:46:31;20.27;;;11.10;;
76540;SDS011;65385;55.772;37.658;2023-09-19T03:47:33;22.15;;;12.75;;
76540;SDS011;65385;55.772;37.658;2023-09-19T03:48:35;23.45;;;12.13;;
76540;SDS011;65385;55.772;37.658;2023-09-19T03:49:37;18.98;;;11.25;;
76540;SDS011;65385;55.772;37.658;2023-09-19T03:50:37;23.17;;;12.50;;
76540;SDS011;65385;55.772;37.658;2023-09-19T03:51:38;19.02;;;11.45;;
76540;SDS011;65385;55.772;37.658;2023-09-19T03:52:41;22.27;;;11.65;;
76540;SDS011;65385;55.772;37.658;2023-09-19T03:53:42;22.67;;;12.25;;
76540;SDS011;65385;55.772;37.658;2023-09-19T03:54:43;19.25;;;11.27;;
76540;SDS011;65385;55.772;37.658;2023-09-19T03:55:45;24.08;;;11.15;;
76540;SDS011;65385;55.772;37.658;2023-09-19T03:56:46;20.73;;;12.00;;
76540;SDS011;65385;55.772;37.658;2023-09-19T03:57:50;20.55;;;12.05;;
76540;SDS011;65385;55.772;37.658;2023-09-19T03:58:51;22.85;;;12.02;;
76540;SDS011;65385;55.772;37.658;2023-09-19T03:59:52;22.30;;;13.00;;
76540;SDS011;65385;55.772;37.658;2023-09-19T04:00:56;21.90;;;11.85;;
76540;SDS011;65385;55.772;37.658;2023-09-19T04:01:58;19.77;;;11.75;;
76540;SDS011;65385;55.772;37.658;2023-09-19T04:02:59;27.85;;;12.68;;
76540;SDS011;65385;55.772;37.658;2023-09-19T04:04:02;19.60;;;12.30;;
76540;SDS011;65385;55.772;37.658;2023-09-19T04:05:10;20.67;;;12.30;;
76540;SDS011;65385;55.772;37.658;2023-09-19T04:06:11;20.50;;;12.07;;
76540;SDS011;65385;55.772;37.658;2023-09-19T04:07:16;20.80;;;11.77;;
76540;SDS011;65385;55.772;37.658;2023-09-19T04:08:17;19.45;;;12.20;;
76540;SDS011;65385;55.772;37.658;2023-09-19T04:09:17;24.40;;;12.10;;
76540;SDS011;65385;55.772;37.658;2023-09-19T04:10:18;20.88;;;12.10;;
76540;SDS011;65385;55.772;37.658;2023-09-19T04:11:19;21.70;;;12.23;;
76540;SDS011;65385;55.772;37.658;2023-09-19T04:12:20;20.38;;;13.40;;
76540;SDS011;65385;55.772;37.658;2023-09-19T04:13:20;21.08;;;12.75;;
76540;SDS011;65385;55.772;37.658;2023-09-19T04:14:21;20.83;;;12.60;;
76540;SDS011;65385;55.772;37.658;2023-09-19T04:15:23;23.30;;;12.23;;
76540;SDS011;65385;55.772;37.658;2023-09-19T04:16:27;20.75;;;11.57;;
76540;SDS011;65385;55.772;37.658;2023-09-19T04:17:27;22.05;;;12.38;;
76540;SDS011;65385;55.772;37.658;2023-09-19T04:18:28;23.20;;;13.27;;
76540;SDS011;65385;55.772;37.658;2023-09-19T04:19:31;19.38;;;12.40;;
76540;SDS011;65385;55.772;37.658;2023-09-19T04:20:32;20.30;;;12.60;;
76540;SDS011;65385;55.772;37.658;2023-09-19T04:21:32;22.58;;;12.68;;
76540;SDS011;65385;55.772;37.658;2023-09-19T04:22:33;22.58;;;12.38;;
76540;SDS011;65385;55.772;37.658;2023-09-19T04:23:34;22.77;;;12.52;;
76540;SDS011;65385;55.772;37.658;2023-09-19T04:24:34;21.60;;;13.10;;
76540;SDS011;65385;55.772;37.658;2023-09-19T04:25:35;21.55;;;12.13;;
76540;SDS011;65385;55.772;37.658;2023-09-19T04:26:37;26.73;;;12.52;;
76540;SDS011;65385;55.772;37.658;2023-09-19T04:27:37;20.85;;;12.32;;
76540;SDS011;65385;55.772;37.658;2023-09-19T04:28:38;20.90;;;12.38;;
76540;SDS011;65385;55.772;37.658;2023-09-19T04:29:39;21.10;;;12.38;;
76540;SDS011;65385;55.772;37.658;2023-09-19T04:30:39;21.30;;;12.55;;
76540;SDS011;65385;55.772;37.658;2023-09-19T04:31:42;20.17;;;12.43;;
76540;SDS011;65385;55.772;37.658;2023-09-19T04:32:45;21.73;;;12.30;;
76540;SDS011;65385;55.772;37.658;2023-09-19T04:33:50;18.52;;;11.27;;
76540;SDS011;65385;55.772;37.658;2023-09-19T04:34:51;21.85;;;12.82;;
76540;SDS011;65385;55.772;37.658;2023-09-19T04:35:54;19.95;;;12.13;;
76540;SDS011;65385;55.772;37.658;2023-09-19T04:36:55;22.13;;;12.75;;
76540;SDS011;65385;55.772;37.658;2023-09-19T04:37:58;22.05;;;12.45;;
76540;SDS011;65385;55.772;37.658;2023-09-19T04:38:59;20.33;;;11.57;;
76540;SDS011;65385;55.772;37.658;2023-09-19T04:39:59;20.30;;;12.15;;
76540;SDS011;65385;55.772;37.658;2023-09-19T04:41:00;21.02;;;12.50;;
76540;SDS011;65385;55.772;37.658;2023-09-19T04:42:00;21.48;;;12.43;;
76540;SDS011;65385;55.772;37.658;2023-09-19T04:43:01;19.65;;;11.88;;
76540;SDS011;65385;55.772;37.658;2023-09-19T04:44:03;18.23;;;12.25;;
76540;SDS011;65385;55.772;37.658;2023-09-19T04:45:04;23.17;;;12.15;;
76540;SDS011;65385;55.772;37.658;2023-09-19T04:46:05;23.10;;;12.68;;
76540;SDS011;65385;55.772;37.658;2023-09-19T04:47:06;19.65;;;12.43;;
76540;SDS011;65385;55.772;37.658;2023-09-19T04:48:07;23.40;;;12.20;;
76540;SDS011;65385;55.772;37.658;2023-09-19T04:49:08;21.20;;;13.52;;
76540;SDS011;65385;55.772;37.658;2023-09-19T04:50:09;22.85;;;13.00;;
76540;SDS011;65385;55.772;37.658;2023-09-19T04:52:15;19.70;;;11.85;;
76540;SDS011;65385;55.772;37.658;2023-09-19T04:53:16;25.05;;;12.70;;
76540;SDS011;65385;55.772;37.658;2023-09-19T04:54:19;20.85;;;12.18;;
76540;SDS011;65385;55.772;37.658;2023-09-19T04:55:19;19.23;;;11.98;;
76540;SDS011;65385;55.772;37.658;2023-09-19T04:56:20;21.75;;;12.32;;
76540;SDS011;65385;55.772;37.658;2023-09-19T04:57:21;21.17;;;11.68;;
76540;SDS011;65385;55.772;37.658;2023-09-19T04:58:22;26.15;;;12.10;;
76540;SDS011;65385;55.772;37.658;2023-09-19T04:59:23;20.42;;;11.32;;
76540;SDS011;65385;55.772;37.658;2023-09-19T05:00:23;22.42;;;12.32;;
76540;SDS011;65385;55.772;37.658;2023-09-19T05:01:24;20.95;;;12.55;;
76540;SDS011;65385;55.772;37.658;2023-09-19T05:02:26;20.80;;;12.60;;
76540;SDS011;65385;55.772;37.658;2023-09-19T05:03:31;21.83;;;11.30;;
76540;SDS011;65385;55.772;37.658;2023-09-19T05:04:31;22.70;;;12.63;;
76540;SDS011;65385;55.772;37.658;2023-09-19T05:05:32;19.60;;;12.32;;
76540;SDS011;65385;55.772;37.658;2023-09-19T05:06:34;19.98;;;11.75;;
76540;SDS011;65385;55.772;37.658;2023-09-19T05:07:35;20.13;;;12.27;;
76540;SDS011;65385;55.772;37.658;2023-09-19T05:08:36;19.83;;;12.13;;
76540;SDS011;65385;55.772;37.658;2023-09-19T05:09:37;20.08;;;12.13;;
76540;SDS011;65385;55.772;37.658;2023-09-19T05:10:37;21.85;;;12.23;;
76540;SDS011;65385;55.772;37.658;2023-09-19T05:11:38;23.92;;;12.07;;
76540;SDS011;65385;55.772;37.658;2023-09-19T05:12:39;21.42;;;11.88;;
76540;SDS011;65385;55.772;37.658;2023-09-19T05:13:41;21.30;;;12.15;;
76540;SDS011;65385;55.772;37.658;2023-09-19T05:14:41;21.63;;;12.13;;
76540;SDS011;65385;55.772;37.658;2023-09-19T05:15:42;20.48;;;12.25;;
76540;SDS011;65385;55.772;37.658;2023-09-19T05:16:42;20.70;;;12.40;;
76540;SDS011;65385;55.772;37.658;2023-09-19T05:17:49;19.15;;;12.43;;
76540;SDS011;65385;55.772;37.658;2023-09-19T05:18:51;20.83;;;11.80;;
76540;SDS011;65385;55.772;37.658;2023-09-19T05:19:52;21.45;;;10.68;;
76540;SDS011;65385;55.772;37.658;2023-09-19T05:20:53;22.13;;;11.43;;
76540;SDS011;65385;55.772;37.658;2023-09-19T05:21:55;20.83;;;12.40;;
76540;SDS011;65385;55.772;37.658;2023-09-19T05:23:01;19.80;;;11.45;;
76540;SDS011;65385;55.772;37.658;2023-09-19T05:24:03;19.65;;;11.18;;
76540;SDS011;65385;55.772;37.658;2023-09-19T05:25:04;20.67;;;12.70;;
76540;SDS011;65385;55.772;37.658;2023-09-19T05:26:05;25.58;;;12.68;;
76540;SDS011;65385;55.772;37.658;2023-09-19T05:27:05;22.90;;;11.60;;
76540;SDS011;65385;55.772;37.658;2023-09-19T05:28:08;19.65;;;11.80;;
76540;SDS011;65385;55.772;37.658;2023-09-19T05:29:11;20.80;;;11.70;;
76540;SDS011;65385;55.772;37.658;2023-09-19T05:30:13;24.65;;;12.23;;
76540;SDS011;65385;55.772;37.658;2023-09-19T05:31:15;22.27;;;12.32;;
76540;SDS011;65385;55.772;37.658;2023-09-19T05:32:16;23.83;;;10.70;;
76540;SDS011;65385;55.772;37.658;2023-09-19T05:33:18;20.05;;;11.65;;
76540;SDS011;65385;55.772;37.658;2023-09-19T05:34:19;20.83;;;11.98;;
76540;SDS011;65385;55.772;37.658;2023-09-19T05:35:20;18.55;;;12.57;;
76540;SDS011;65385;55.772;37.658;2023-09-19T05:36:21;19.40;;;10.93;;
76540;SDS011;65385;55.772;37.658;2023-09-19T05:37:22;22.08;;;13.00;;
76540;SDS011;65385;55.772;37.658;2023-09-19T05:38:23;23.20;;;10.57;;
76540;SDS011;65385;55.772;37.658;2023-09-19T05:39:25;19.80;;;11.25;;
76540;SDS011;65385;55.772;37.658;2023-09-19T05:40:26;22.33;;;11.70;;
76540;SDS011;65385;55.772;37.658;2023-09-19T05:41:27;19.58;;;10.88;;
76540;SDS011;65385;55.772;37.658;2023-09-19T05:42:28;21.25;;;10.95;;
76540;SDS011;65385;55.772;37.658;2023-09-19T05:43:28;18.15;;;11.63;;
76540;SDS011;65385;55.772;37.658;2023-09-19T05:44:29;20.17;;;11.23;;
76540;SDS011;65385;55.772;37.658;2023-09-19T05:45:29;19.23;;;10.77;;
76540;SDS011;65385;55.772;37.658;2023-09-19T05:46:30;20.10;;;10.63;;
76540;SDS011;65385;55.772;37.658;2023-09-19T05:47:31;20.80;;;11.50;;
76540;SDS011;65385;55.772;37.658;2023-09-19T05:48:32;19.38;;;10.75;;
76540;SDS011;65385;55.772;37.658;2023-09-19T05:49:32;22.88;;;11.50;;
76540;SDS011;65385;55.772;37.658;2023-09-19T05:50:33;17.77;;;10.82;;
76540;SDS011;65385;55.772;37.658;2023-09-19T05:51:34;20.55;;;10.57;;
76540;SDS011;65385;55.772;37.658;2023-09-19T05:52:36;23.83;;;11.07;;
76540;SDS011;65385;55.772;37.658;2023-09-19T05:53:37;20.48;;;10.50;;
76540;SDS011;65385;55.772;37.658;2023-09-19T05:54:38;18.73;;;9.82;;
76540;SDS011;65385;55.772;37.658;2023-09-19T05:55:38;16.58;;;10.00;;
76540;SDS011;65385;55.772;37.658;2023-09-19T05:56:39;19.15;;;9.45;;
76540;SDS011;65385;55.772;37.658;2023-09-19T05:57:39;16.75;;;10.32;;
76540;SDS011;65385;55.772;37.658;2023-09-19T05:58:42;17.00;;;10.05;;
76540;SDS011;65385;55.772;37.658;2023-09-19T05:59:44;18.95;;;9.85;;
76540;SDS011;65385;55.772;37.658;2023-09-19T06:00:45;22.58;;;11.55;;
76540;SDS011;65385;55.772;37.658;2023-09-19T06:01:48;17.08;;;11.48;;
76540;SDS011;65385;55.772;37.658;2023-09-19T06:02:50;23.08;;;11.32;;
76540;SDS011;65385;55.772;37.658;2023-09-19T06:03:53;18.88;;;10.50;;
76540;SDS011;65385;55.772;37.658;2023-09-19T06:04:54;20.42;;;11.70;;
76540;SDS011;65385;55.772;37.658;2023-09-19T06:05:55;17.38;;;10.40;;
76540;SDS011;65385;55.772;37.658;2023-09-19T06:06:57;16.80;;;10.15;;
76540;SDS011;65385;55.772;37.658;2023-09-19T06:07:58;17.77;;;9.90;;
76540;SDS011;65385;55.772;37.658;2023-09-19T06:09:00;18.05;;;10.65;;
76540;SDS011;65385;55.772;37.658;2023-09-19T06:10:01;16.73;;;9.27;;
76540;SDS011;65385;55.772;37.658;2023-09-19T06:11:01;17.15;;;9.80;;
76540;SDS011;65385;55.772;37.658;2023-09-19T06:12:02;17.85;;;9.43;;
76540;SDS011;65385;55.772;37.658;2023-09-19T06:13:04;17.20;;;10.52;;